sensor_id;sensor_type;location;lat;lon;timestamp;P1;durP1;ratioP1;P2;durP2;ratioP2
65071;SDS011;51663;52.310;17.016;2023-03-12T00:02:19;8.90;;;5.57;;
65071;SDS011;51663;52.310;17.016;2023-03-12T00:05:22;8.67;;;5.73;;
65071;SDS011;51663;52.310;17.016;2023-03-12T00:08:26;7.47;;;5.20;;
65071;SDS011;51663;52.310;17.016;2023-03-12T00:11:28;9.63;;;5.30;;
65071;SDS011;51663;52.310;17.016;2023-03-12T00:14:31;9.27;;;4.83;;
65071;SDS011;51663;52.310;17.016;2023-03-12T00:17:33;9.10;;;5.10;;
65071;SDS011;51663;52.310;17.016;2023-03-12T00:20:35;7.07;;;4.40;;
65071;SDS011;51663;52.310;17.016;2023-03-12T00:23:38;8.97;;;4.53;;
65071;SDS011;51663;52.310;17.016;2023-03-12T00:26:40;6.80;;;4.53;;
65071;SDS011;51663;52.310;17.016;2023-03-12T00:29:43;6.53;;;4.60;;
65071;SDS011;51663;52.310;17.016;2023-03-12T00:32:45;11.10;;;4.97;;
65071;SDS011;51663;52.310;17.016;2023-03-12T00:35:48;7.60;;;4.83;;
65071;SDS011;51663;52.310;17.016;2023-03-12T00:38:50;7.70;;;4.73;;
65071;SDS011;51663;52.310;17.016;2023-03-12T00:41:53;11.03;;;5.20;;
65071;SDS011;51663;52.310;17.016;2023-03-12T00:44:55;6.67;;;5.10;;
65071;SDS011;51663;52.310;17.016;2023-03-12T00:47:57;6.73;;;4.73;;
65071;SDS011;51663;52.310;17.016;2023-03-12T00:51:00;6.60;;;4.30;;
65071;SDS011;51663;52.310;17.016;2023-03-12T00:54:02;5.70;;;4.57;;
65071;SDS011;51663;52.310;17.016;2023-03-12T00:57:04;6.37;;;4.27;;
65071;SDS011;51663;52.310;17.016;2023-03-12T01:00:07;7.73;;;4.37;;
65071;SDS011;51663;52.310;17.016;2023-03-12T01:03:11;5.33;;;4.00;;
65071;SDS011;51663;52.310;17.016;2023-03-12T01:06:13;8.57;;;4.80;;
65071;SDS011;51663;52.310;17.016;2023-03-12T01:09:15;5.93;;;4.17;;
65071;SDS011;51663;52.310;17.016;2023-03-12T01:12:19;6.93;;;4.40;;
65071;SDS011;51663;52.310;17.016;2023-03-12T01:15:21;7.93;;;3.73;;
65071;SDS011;51663;52.310;17.016;2023-03-12T01:18:24;5.33;;;4.37;;
65071;SDS011;51663;52.310;17.016;2023-03-12T01:21:26;6.20;;;4.03;;
65071;SDS011;51663;52.310;17.016;2023-03-12T01:24:29;6.20;;;3.70;;
65071;SDS011;51663;52.310;17.016;2023-03-12T01:27:31;7.53;;;3.60;;
65071;SDS011;51663;52.310;17.016;2023-03-12T01:30:33;6.70;;;3.33;;
65071;SDS011;51663;52.310;17.016;2023-03-12T01:33:35;5.80;;;3.83;;
65071;SDS011;51663;52.310;17.016;2023-03-12T01:36:38;6.87;;;3.40;;
65071;SDS011;51663;52.310;17.016;2023-03-12T01:39:41;6.33;;;3.43;;
65071;SDS011;51663;52.310;17.016;2023-03-12T01:42:50;3.93;;;3.27;;
65071;SDS011;51663;52.310;17.016;2023-03-12T01:46:01;4.50;;;3.27;;
65071;SDS011;51663;52.310;17.016;2023-03-12T01:49:26;8.47;;;3.07;;
65071;SDS011;51663;52.310;17.016;2023-03-12T01:52:31;4.77;;;2.93;;
65071;SDS011;51663;52.310;17.016;2023-03-12T01:55:37;6.20;;;2.80;;
65071;SDS011;51663;52.310;17.016;2023-03-12T01:58:40;5.20;;;2.53;;
65071;SDS011;51663;52.310;17.016;2023-03-12T02:01:45;6.97;;;2.80;;
65071;SDS011;51663;52.310;17.016;2023-03-12T02:04:48;3.30;;;2.80;;
65071;SDS011;51663;52.310;17.016;2023-03-12T02:07:53;6.40;;;2.90;;
65071;SDS011;51663;52.310;17.016;2023-03-12T02:10:56;5.77;;;2.80;;
65071;SDS011;51663;52.310;17.016;2023-03-12T02:13:58;4.57;;;2.97;;
65071;SDS011;51663;52.310;17.016;2023-03-12T02:17:00;7.73;;;3.03;;
65071;SDS011;51663;52.310;17.016;2023-03-12T02:20:11;5.83;;;2.50;;
65071;SDS011;51663;52.310;17.016;2023-03-12T02:26:28;4.23;;;3.03;;
65071;SDS011;51663;52.310;17.016;2023-03-12T02:29:31;4.87;;;2.67;;
65071;SDS011;51663;52.310;17.016;2023-03-12T02:32:37;5.20;;;2.63;;
65071;SDS011;51663;52.310;17.016;2023-03-12T02:35:40;5.07;;;2.50;;
65071;SDS011;51663;52.310;17.016;2023-03-12T02:38:50;4.23;;;2.53;;
65071;SDS011;51663;52.310;17.016;2023-03-12T02:41:54;6.07;;;2.60;;
65071;SDS011;51663;52.310;17.016;2023-03-12T02:44:58;2.93;;;2.63;;
65071;SDS011;51663;52.310;17.016;2023-03-12T02:48:02;2.73;;;2.20;;
65071;SDS011;51663;52.310;17.016;2023-03-12T02:51:06;3.27;;;2.50;;
65071;SDS011;51663;52.310;17.016;2023-03-12T02:54:09;2.50;;;2.30;;
65071;SDS011;51663;52.310;17.016;2023-03-12T02:57:12;3.27;;;2.33;;
65071;SDS011;51663;52.310;17.016;2023-03-12T03:00:14;6.90;;;2.57;;
65071;SDS011;51663;52.310;17.016;2023-03-12T03:03:18;3.93;;;2.20;;
65071;SDS011;51663;52.310;17.016;2023-03-12T03:06:20;6.87;;;2.57;;
65071;SDS011;51663;52.310;17.016;2023-03-12T03:09:23;3.67;;;2.40;;
65071;SDS011;51663;52.310;17.016;2023-03-12T03:12:25;5.17;;;2.23;;
65071;SDS011;51663;52.310;17.016;2023-03-12T03:15:27;4.30;;;2.50;;
65071;SDS011;51663;52.310;17.016;2023-03-12T03:18:30;4.60;;;2.33;;
65071;SDS011;51663;52.310;17.016;2023-03-12T03:21:33;3.53;;;2.27;;
65071;SDS011;51663;52.310;17.016;2023-03-12T03:24:35;6.33;;;2.80;;
65071;SDS011;51663;52.310;17.016;2023-03-12T03:27:37;3.17;;;2.20;;
65071;SDS011;51663;52.310;17.016;2023-03-12T03:30:39;8.13;;;2.67;;
65071;SDS011;51663;52.310;17.016;2023-03-12T03:33:42;4.70;;;2.40;;
65071;SDS011;51663;52.310;17.016;2023-03-12T03:36:44;4.17;;;2.33;;
65071;SDS011;51663;52.310;17.016;2023-03-12T03:39:46;5.53;;;2.30;;
65071;SDS011;51663;52.310;17.016;2023-03-12T03:42:48;2.43;;;1.90;;
65071;SDS011;51663;52.310;17.016;2023-03-12T03:45:58;4.07;;;2.20;;
65071;SDS011;51663;52.310;17.016;2023-03-12T03:49:05;6.00;;;2.57;;
65071;SDS011;51663;52.310;17.016;2023-03-12T03:52:07;4.37;;;2.43;;
65071;SDS011;51663;52.310;17.016;2023-03-12T03:55:09;6.07;;;2.20;;
65071;SDS011;51663;52.310;17.016;2023-03-12T03:58:11;3.43;;;2.10;;
65071;SDS011;51663;52.310;17.016;2023-03-12T04:01:14;3.70;;;2.33;;
65071;SDS011;51663;52.310;17.016;2023-03-12T04:04:16;7.30;;;2.40;;
65071;SDS011;51663;52.310;17.016;2023-03-12T04:07:19;4.57;;;2.40;;
65071;SDS011;51663;52.310;17.016;2023-03-12T04:10:22;7.77;;;2.30;;
65071;SDS011;51663;52.310;17.016;2023-03-12T04:13:25;4.70;;;2.20;;
65071;SDS011;51663;52.310;17.016;2023-03-12T04:16:27;4.93;;;2.60;;
65071;SDS011;51663;52.310;17.016;2023-03-12T04:19:29;5.50;;;2.30;;
65071;SDS011;51663;52.310;17.016;2023-03-12T04:22:32;4.53;;;2.10;;
65071;SDS011;51663;52.310;17.016;2023-03-12T04:25:34;4.73;;;2.27;;
65071;SDS011;51663;52.310;17.016;2023-03-12T04:28:37;5.10;;;2.60;;
65071;SDS011;51663;52.310;17.016;2023-03-12T04:31:39;4.20;;;2.50;;
65071;SDS011;51663;52.310;17.016;2023-03-12T04:34:41;4.57;;;1.93;;
65071;SDS011;51663;52.310;17.016;2023-03-12T04:37:43;3.63;;;2.10;;
65071;SDS011;51663;52.310;17.016;2023-03-12T04:40:46;6.50;;;2.30;;
65071;SDS011;51663;52.310;17.016;2023-03-12T04:43:48;4.23;;;2.43;;
65071;SDS011;51663;52.310;17.016;2023-03-12T04:46:50;5.87;;;2.47;;
65071;SDS011;51663;52.310;17.016;2023-03-12T04:49:53;8.53;;;3.40;;
65071;SDS011;51663;52.310;17.016;2023-03-12T04:52:55;2.73;;;2.10;;
65071;SDS011;51663;52.310;17.016;2023-03-12T04:55:57;2.60;;;1.87;;
65071;SDS011;51663;52.310;17.016;2023-03-12T04:59:00;4.73;;;2.50;;
65071;SDS011;51663;52.310;17.016;2023-03-12T05:02:02;4.13;;;2.07;;
65071;SDS011;51663;52.310;17.016;2023-03-12T05:05:05;5.37;;;2.30;;
65071;SDS011;51663;52.310;17.016;2023-03-12T05:08:08;5.20;;;2.27;;
65071;SDS011;51663;52.310;17.016;2023-03-12T05:11:10;5.23;;;2.40;;
65071;SDS011;51663;52.310;17.016;2023-03-12T05:14:12;4.23;;;2.40;;
65071;SDS011;51663;52.310;17.016;2023-03-12T05:17:15;2.87;;;2.30;;
65071;SDS011;51663;52.310;17.016;2023-03-12T05:20:17;5.63;;;2.20;;
65071;SDS011;51663;52.310;17.016;2023-03-12T05:23:19;2.90;;;2.10;;
65071;SDS011;51663;52.310;17.016;2023-03-12T05:26:22;5.47;;;2.20;;
65071;SDS011;51663;52.310;17.016;2023-03-12T05:29:26;4.93;;;2.60;;
65071;SDS011;51663;52.310;17.016;2023-03-12T05:32:29;3.83;;;2.70;;
65071;SDS011;51663;52.310;17.016;2023-03-12T05:35:32;6.30;;;2.57;;
65071;SDS011;51663;52.310;17.016;2023-03-12T05:38:34;4.63;;;3.10;;
65071;SDS011;51663;52.310;17.016;2023-03-12T05:41:36;6.17;;;2.80;;
65071;SDS011;51663;52.310;17.016;2023-03-12T05:44:38;6.97;;;2.43;;
65071;SDS011;51663;52.310;17.016;2023-03-12T05:47:41;4.17;;;2.10;;
65071;SDS011;51663;52.310;17.016;2023-03-12T05:50:43;7.23;;;2.33;;
65071;SDS011;51663;52.310;17.016;2023-03-12T05:53:46;4.63;;;2.40;;
65071;SDS011;51663;52.310;17.016;2023-03-12T05:56:48;9.80;;;3.23;;
65071;SDS011;51663;52.310;17.016;2023-03-12T05:59:51;6.30;;;2.87;;
65071;SDS011;51663;52.310;17.016;2023-03-12T06:02:53;3.80;;;2.43;;
65071;SDS011;51663;52.310;17.016;2023-03-12T06:05:56;4.77;;;2.80;;
65071;SDS011;51663;52.310;17.016;2023-03-12T06:08:58;7.40;;;2.50;;
65071;SDS011;51663;52.310;17.016;2023-03-12T06:12:01;5.10;;;2.70;;
65071;SDS011;51663;52.310;17.016;2023-03-12T06:15:03;3.67;;;2.33;;
65071;SDS011;51663;52.310;17.016;2023-03-12T06:18:06;5.93;;;2.53;;
65071;SDS011;51663;52.310;17.016;2023-03-12T06:24:32;3.50;;;2.20;;
65071;SDS011;51663;52.310;17.016;2023-03-12T06:27:34;4.70;;;2.40;;
65071;SDS011;51663;52.310;17.016;2023-03-12T06:30:36;3.90;;;2.30;;
65071;SDS011;51663;52.310;17.016;2023-03-12T06:33:38;5.90;;;2.53;;
65071;SDS011;51663;52.310;17.016;2023-03-12T06:36:40;3.37;;;2.50;;
65071;SDS011;51663;52.310;17.016;2023-03-12T06:39:42;7.30;;;2.80;;
65071;SDS011;51663;52.310;17.016;2023-03-12T06:42:45;6.17;;;2.70;;
65071;SDS011;51663;52.310;17.016;2023-03-12T06:45:47;4.73;;;2.90;;
65071;SDS011;51663;52.310;17.016;2023-03-12T06:48:49;5.50;;;2.73;;
65071;SDS011;51663;52.310;17.016;2023-03-12T06:51:52;4.97;;;2.60;;
65071;SDS011;51663;52.310;17.016;2023-03-12T06:54:54;3.23;;;2.53;;
65071;SDS011;51663;52.310;17.016;2023-03-12T06:57:57;4.53;;;2.23;;
65071;SDS011;51663;52.310;17.016;2023-03-12T07:00:59;3.83;;;2.20;;
65071;SDS011;51663;52.310;17.016;2023-03-12T07:04:01;2.57;;;2.37;;
65071;SDS011;51663;52.310;17.016;2023-03-12T07:07:03;5.50;;;3.07;;
65071;SDS011;51663;52.310;17.016;2023-03-12T07:10:06;4.97;;;3.10;;
65071;SDS011;51663;52.310;17.016;2023-03-12T07:13:09;4.10;;;2.47;;
65071;SDS011;51663;52.310;17.016;2023-03-12T07:16:11;4.73;;;2.43;;
65071;SDS011;51663;52.310;17.016;2023-03-12T07:19:16;6.30;;;2.80;;
65071;SDS011;51663;52.310;17.016;2023-03-12T07:22:20;3.47;;;2.33;;
65071;SDS011;51663;52.310;17.016;2023-03-12T07:25:22;5.23;;;2.30;;
65071;SDS011;51663;52.310;17.016;2023-03-12T07:28:25;4.73;;;2.67;;
65071;SDS011;51663;52.310;17.016;2023-03-12T07:31:27;5.03;;;2.50;;
65071;SDS011;51663;52.310;17.016;2023-03-12T07:34:30;6.53;;;2.70;;
65071;SDS011;51663;52.310;17.016;2023-03-12T07:37:33;5.17;;;2.50;;
65071;SDS011;51663;52.310;17.016;2023-03-12T07:40:35;5.03;;;2.80;;
65071;SDS011;51663;52.310;17.016;2023-03-12T07:43:37;3.90;;;2.20;;
65071;SDS011;51663;52.310;17.016;2023-03-12T07:46:40;7.90;;;2.30;;
65071;SDS011;51663;52.310;17.016;2023-03-12T07:49:42;4.53;;;2.33;;
65071;SDS011;51663;52.310;17.016;2023-03-12T07:52:45;3.57;;;2.57;;
65071;SDS011;51663;52.310;17.016;2023-03-12T07:55:49;6.57;;;2.20;;
65071;SDS011;51663;52.310;17.016;2023-03-12T07:58:51;4.33;;;2.20;;
65071;SDS011;51663;52.310;17.016;2023-03-12T08:01:53;6.73;;;2.30;;
65071;SDS011;51663;52.310;17.016;2023-03-12T08:04:56;5.17;;;2.40;;
65071;SDS011;51663;52.310;17.016;2023-03-12T08:07:59;5.20;;;2.50;;
65071;SDS011;51663;52.310;17.016;2023-03-12T08:11:02;5.33;;;2.20;;
65071;SDS011;51663;52.310;17.016;2023-03-12T08:14:06;4.10;;;1.93;;
65071;SDS011;51663;52.310;17.016;2023-03-12T08:17:08;4.67;;;2.20;;
65071;SDS011;51663;52.310;17.016;2023-03-12T08:20:11;3.73;;;2.00;;
65071;SDS011;51663;52.310;17.016;2023-03-12T08:23:14;5.20;;;2.37;;
65071;SDS011;51663;52.310;17.016;2023-03-12T08:26:16;4.73;;;1.70;;
65071;SDS011;51663;52.310;17.016;2023-03-12T08:29:18;5.57;;;2.00;;
65071;SDS011;51663;52.310;17.016;2023-03-12T08:32:21;3.53;;;1.67;;
65071;SDS011;51663;52.310;17.016;2023-03-12T08:35:23;4.23;;;2.10;;
65071;SDS011;51663;52.310;17.016;2023-03-12T08:38:26;4.07;;;2.10;;
65071;SDS011;51663;52.310;17.016;2023-03-12T08:41:28;5.33;;;2.20;;
65071;SDS011;51663;52.310;17.016;2023-03-12T08:44:31;5.93;;;2.17;;
65071;SDS011;51663;52.310;17.016;2023-03-12T08:47:34;3.43;;;2.03;;
65071;SDS011;51663;52.310;17.016;2023-03-12T08:50:37;5.17;;;2.13;;
65071;SDS011;51663;52.310;17.016;2023-03-12T08:53:40;4.20;;;2.00;;
65071;SDS011;51663;52.310;17.016;2023-03-12T08:56:42;3.50;;;1.63;;
65071;SDS011;51663;52.310;17.016;2023-03-12T08:59:48;5.73;;;2.10;;
65071;SDS011;51663;52.310;17.016;2023-03-12T09:02:51;4.10;;;2.00;;
65071;SDS011;51663;52.310;17.016;2023-03-12T09:06:04;6.03;;;2.60;;
65071;SDS011;51663;52.310;17.016;2023-03-12T09:09:17;4.47;;;1.90;;
65071;SDS011;51663;52.310;17.016;2023-03-12T09:12:19;3.87;;;2.03;;
65071;SDS011;51663;52.310;17.016;2023-03-12T09:15:22;3.77;;;2.13;;
65071;SDS011;51663;52.310;17.016;2023-03-12T09:18:24;3.53;;;1.90;;
65071;SDS011;51663;52.310;17.016;2023-03-12T09:21:27;5.43;;;1.90;;
65071;SDS011;51663;52.310;17.016;2023-03-12T09:24:29;4.47;;;2.10;;
65071;SDS011;51663;52.310;17.016;2023-03-12T09:27:36;4.07;;;2.00;;
65071;SDS011;51663;52.310;17.016;2023-03-12T09:30:39;4.43;;;2.00;;
65071;SDS011;51663;52.310;17.016;2023-03-12T09:33:42;6.00;;;2.00;;
65071;SDS011;51663;52.310;17.016;2023-03-12T09:36:44;5.53;;;2.30;;
65071;SDS011;51663;52.310;17.016;2023-03-12T09:39:48;4.63;;;2.20;;
65071;SDS011;51663;52.310;17.016;2023-03-12T09:42:52;6.60;;;2.40;;
65071;SDS011;51663;52.310;17.016;2023-03-12T09:45:59;5.53;;;2.40;;
65071;SDS011;51663;52.310;17.016;2023-03-12T09:49:04;6.47;;;2.73;;
65071;SDS011;51663;52.310;17.016;2023-03-12T09:52:17;5.00;;;2.07;;
65071;SDS011;51663;52.310;17.016;2023-03-12T09:55:25;6.33;;;2.30;;
65071;SDS011;51663;52.310;17.016;2023-03-12T09:58:34;5.50;;;2.23;;
65071;SDS011;51663;52.310;17.016;2023-03-12T10:04:52;5.27;;;2.27;;
65071;SDS011;51663;52.310;17.016;2023-03-12T10:08:09;4.07;;;2.40;;
65071;SDS011;51663;52.310;17.016;2023-03-12T10:15:16;6.73;;;3.27;;
65071;SDS011;51663;52.310;17.016;2023-03-12T10:28:19;5.67;;;2.00;;
65071;SDS011;51663;52.310;17.016;2023-03-12T10:31:28;6.87;;;2.17;;
65071;SDS011;51663;52.310;17.016;2023-03-12T10:34:35;7.93;;;2.10;;
65071;SDS011;51663;52.310;17.016;2023-03-12T10:37:51;4.57;;;2.00;;
65071;SDS011;51663;52.310;17.016;2023-03-12T10:40:58;4.43;;;2.00;;
65071;SDS011;51663;52.310;17.016;2023-03-12T10:44:05;3.00;;;1.90;;
65071;SDS011;51663;52.310;17.016;2023-03-12T10:50:41;4.43;;;2.30;;
65071;SDS011;51663;52.310;17.016;2023-03-12T10:53:44;4.17;;;1.90;;
65071;SDS011;51663;52.310;17.016;2023-03-12T10:56:49;4.23;;;1.70;;
65071;SDS011;51663;52.310;17.016;2023-03-12T10:59:51;6.43;;;1.90;;
65071;SDS011;51663;52.310;17.016;2023-03-12T11:03:18;4.77;;;2.10;;
65071;SDS011;51663;52.310;17.016;2023-03-12T11:06:22;3.40;;;2.13;;
65071;SDS011;51663;52.310;17.016;2023-03-12T11:09:28;6.13;;;2.10;;
65071;SDS011;51663;52.310;17.016;2023-03-12T11:12:30;3.90;;;1.90;;
65071;SDS011;51663;52.310;17.016;2023-03-12T11:22:03;5.27;;;1.73;;
65071;SDS011;51663;52.310;17.016;2023-03-12T11:25:18;3.20;;;1.90;;
65071;SDS011;51663;52.310;17.016;2023-03-12T11:28:31;5.90;;;2.10;;
65071;SDS011;51663;52.310;17.016;2023-03-12T11:31:41;6.27;;;2.93;;
65071;SDS011;51663;52.310;17.016;2023-03-12T11:34:51;7.10;;;3.57;;
65071;SDS011;51663;52.310;17.016;2023-03-12T11:41:21;7.67;;;2.03;;
65071;SDS011;51663;52.310;17.016;2023-03-12T12:08:01;4.20;;;1.90;;
65071;SDS011;51663;52.310;17.016;2023-03-12T12:15:02;5.70;;;1.80;;
65071;SDS011;51663;52.310;17.016;2023-03-12T12:18:33;6.30;;;2.00;;
65071;SDS011;51663;52.310;17.016;2023-03-12T12:21:51;4.17;;;2.10;;
65071;SDS011;51663;52.310;17.016;2023-03-12T12:25:21;4.33;;;1.70;;
65071;SDS011;51663;52.310;17.016;2023-03-12T12:28:29;5.20;;;2.20;;
65071;SDS011;51663;52.310;17.016;2023-03-12T12:41:58;7.17;;;1.83;;
65071;SDS011;51663;52.310;17.016;2023-03-12T12:45:05;6.77;;;1.80;;
65071;SDS011;51663;52.310;17.016;2023-03-12T12:48:17;2.03;;;1.60;;
65071;SDS011;51663;52.310;17.016;2023-03-12T12:51:22;2.50;;;1.60;;
65071;SDS011;51663;52.310;17.016;2023-03-12T12:54:36;5.03;;;1.83;;
65071;SDS011;51663;52.310;17.016;2023-03-12T12:58:00;3.63;;;1.80;;
65071;SDS011;51663;52.310;17.016;2023-03-12T13:01:08;7.03;;;1.90;;
65071;SDS011;51663;52.310;17.016;2023-03-12T13:04:12;3.77;;;1.67;;
65071;SDS011;51663;52.310;17.016;2023-03-12T13:13:34;4.70;;;1.93;;
65071;SDS011;51663;52.310;17.016;2023-03-12T13:16:38;5.47;;;2.23;;
65071;SDS011;51663;52.310;17.016;2023-03-12T13:19:44;6.13;;;2.00;;
65071;SDS011;51663;52.310;17.016;2023-03-12T13:29:52;3.90;;;2.00;;
65071;SDS011;51663;52.310;17.016;2023-03-12T13:45:26;3.77;;;1.90;;
65071;SDS011;51663;52.310;17.016;2023-03-12T13:48:32;3.57;;;1.70;;
65071;SDS011;51663;52.310;17.016;2023-03-12T13:51:46;6.83;;;2.20;;
65071;SDS011;51663;52.310;17.016;2023-03-12T13:58:08;4.57;;;2.70;;
65071;SDS011;51663;52.310;17.016;2023-03-12T14:01:17;4.53;;;2.40;;
65071;SDS011;51663;52.310;17.016;2023-03-12T14:04:24;5.20;;;2.20;;
65071;SDS011;51663;52.310;17.016;2023-03-12T14:17:57;6.03;;;2.40;;
65071;SDS011;51663;52.310;17.016;2023-03-12T14:21:06;4.90;;;2.03;;
65071;SDS011;51663;52.310;17.016;2023-03-12T14:24:22;4.47;;;2.37;;
65071;SDS011;51663;52.310;17.016;2023-03-12T14:27:33;3.67;;;2.10;;
65071;SDS011;51663;52.310;17.016;2023-03-12T14:30:39;4.17;;;2.17;;
65071;SDS011;51663;52.310;17.016;2023-03-12T14:33:52;3.63;;;2.30;;
65071;SDS011;51663;52.310;17.016;2023-03-12T14:43:33;8.53;;;2.90;;
65071;SDS011;51663;52.310;17.016;2023-03-12T14:46:35;6.47;;;3.30;;
65071;SDS011;51663;52.310;17.016;2023-03-12T14:49:46;8.93;;;2.93;;
65071;SDS011;51663;52.310;17.016;2023-03-12T14:52:48;7.57;;;3.03;;
65071;SDS011;51663;52.310;17.016;2023-03-12T14:56:01;4.60;;;2.87;;
65071;SDS011;51663;52.310;17.016;2023-03-12T15:02:30;5.60;;;3.30;;
65071;SDS011;51663;52.310;17.016;2023-03-12T15:05:33;3.43;;;2.30;;
65071;SDS011;51663;52.310;17.016;2023-03-12T15:08:37;4.97;;;3.00;;
65071;SDS011;51663;52.310;17.016;2023-03-12T15:11:41;5.67;;;3.07;;
65071;SDS011;51663;52.310;17.016;2023-03-12T15:14:43;4.77;;;2.90;;
65071;SDS011;51663;52.310;17.016;2023-03-12T15:17:46;5.87;;;4.20;;
65071;SDS011;51663;52.310;17.016;2023-03-12T15:20:48;3.30;;;2.67;;
65071;SDS011;51663;52.310;17.016;2023-03-12T15:23:53;3.80;;;2.50;;
65071;SDS011;51663;52.310;17.016;2023-03-12T15:26:56;3.40;;;2.70;;
65071;SDS011;51663;52.310;17.016;2023-03-12T15:29:58;5.80;;;3.07;;
65071;SDS011;51663;52.310;17.016;2023-03-12T15:33:06;5.87;;;2.87;;
65071;SDS011;51663;52.310;17.016;2023-03-12T15:42:35;4.87;;;3.00;;
65071;SDS011;51663;52.310;17.016;2023-03-12T15:45:40;5.47;;;3.30;;
65071;SDS011;51663;52.310;17.016;2023-03-12T15:48:46;4.47;;;3.13;;
65071;SDS011;51663;52.310;17.016;2023-03-12T15:51:57;6.37;;;3.33;;
65071;SDS011;51663;52.310;17.016;2023-03-12T15:58:25;6.80;;;3.57;;
65071;SDS011;51663;52.310;17.016;2023-03-12T16:04:49;8.73;;;4.70;;
65071;SDS011;51663;52.310;17.016;2023-03-12T16:07:51;18.03;;;8.20;;
65071;SDS011;51663;52.310;17.016;2023-03-12T16:10:54;39.33;;;16.83;;
65071;SDS011;51663;52.310;17.016;2023-03-12T16:14:04;45.07;;;18.30;;
65071;SDS011;51663;52.310;17.016;2023-03-12T16:17:14;40.77;;;16.97;;
65071;SDS011;51663;52.310;17.016;2023-03-12T16:20:19;37.07;;;15.97;;
65071;SDS011;51663;52.310;17.016;2023-03-12T16:23:22;31.37;;;14.00;;
65071;SDS011;51663;52.310;17.016;2023-03-12T16:26:25;23.10;;;11.83;;
65071;SDS011;51663;52.310;17.016;2023-03-12T16:29:34;23.10;;;10.10;;
65071;SDS011;51663;52.310;17.016;2023-03-12T16:32:39;25.87;;;12.53;;
65071;SDS011;51663;52.310;17.016;2023-03-12T16:35:41;27.10;;;13.43;;
65071;SDS011;51663;52.310;17.016;2023-03-12T16:38:44;22.57;;;10.27;;
65071;SDS011;51663;52.310;17.016;2023-03-12T16:41:47;56.20;;;23.53;;
65071;SDS011;51663;52.310;17.016;2023-03-12T16:44:49;51.13;;;22.80;;
65071;SDS011;51663;52.310;17.016;2023-03-12T16:47:52;58.07;;;26.93;;
65071;SDS011;51663;52.310;17.016;2023-03-12T16:51:00;57.23;;;25.63;;
65071;SDS011;51663;52.310;17.016;2023-03-12T16:54:06;69.47;;;32.73;;
65071;SDS011;51663;52.310;17.016;2023-03-12T16:57:15;50.57;;;23.60;;
65071;SDS011;51663;52.310;17.016;2023-03-12T17:00:21;33.13;;;17.43;;
65071;SDS011;51663;52.310;17.016;2023-03-12T17:03:33;32.47;;;18.20;;
65071;SDS011;51663;52.310;17.016;2023-03-12T17:06:38;27.50;;;15.57;;
65071;SDS011;51663;52.310;17.016;2023-03-12T17:09:42;26.93;;;15.47;;
65071;SDS011;51663;52.310;17.016;2023-03-12T17:12:44;31.17;;;16.00;;
65071;SDS011;51663;52.310;17.016;2023-03-12T17:15:49;39.23;;;20.90;;
65071;SDS011;51663;52.310;17.016;2023-03-12T17:18:52;36.67;;;18.07;;
65071;SDS011;51663;52.310;17.016;2023-03-12T17:21:55;35.53;;;15.90;;
65071;SDS011;51663;52.310;17.016;2023-03-12T17:24:58;30.23;;;14.37;;
65071;SDS011;51663;52.310;17.016;2023-03-12T17:28:00;26.00;;;11.67;;
65071;SDS011;51663;52.310;17.016;2023-03-12T17:31:02;28.53;;;12.40;;
65071;SDS011;51663;52.310;17.016;2023-03-12T17:34:05;20.30;;;9.57;;
65071;SDS011;51663;52.310;17.016;2023-03-12T17:37:07;10.60;;;6.00;;
65071;SDS011;51663;52.310;17.016;2023-03-12T17:40:10;14.00;;;6.83;;
65071;SDS011;51663;52.310;17.016;2023-03-12T17:43:13;12.93;;;7.20;;
65071;SDS011;51663;52.310;17.016;2023-03-12T17:46:15;15.17;;;7.97;;
65071;SDS011;51663;52.310;17.016;2023-03-12T17:49:17;11.33;;;6.87;;
65071;SDS011;51663;52.310;17.016;2023-03-12T17:52:19;11.73;;;6.23;;
65071;SDS011;51663;52.310;17.016;2023-03-12T17:55:21;13.53;;;6.87;;
65071;SDS011;51663;52.310;17.016;2023-03-12T17:58:23;12.23;;;6.50;;
65071;SDS011;51663;52.310;17.016;2023-03-12T18:01:26;23.67;;;6.30;;
65071;SDS011;51663;52.310;17.016;2023-03-12T18:04:28;7.27;;;4.93;;
65071;SDS011;51663;52.310;17.016;2023-03-12T18:07:30;9.63;;;5.10;;
65071;SDS011;51663;52.310;17.016;2023-03-12T18:10:32;8.63;;;5.20;;
65071;SDS011;51663;52.310;17.016;2023-03-12T18:13:36;9.53;;;5.37;;
65071;SDS011;51663;52.310;17.016;2023-03-12T18:16:41;13.30;;;7.47;;
65071;SDS011;51663;52.310;17.016;2023-03-12T18:19:43;19.07;;;9.33;;
65071;SDS011;51663;52.310;17.016;2023-03-12T18:22:46;26.30;;;13.90;;
65071;SDS011;51663;52.310;17.016;2023-03-12T18:25:48;25.57;;;12.83;;
65071;SDS011;51663;52.310;17.016;2023-03-12T18:28:50;18.63;;;10.10;;
65071;SDS011;51663;52.310;17.016;2023-03-12T18:31:52;20.97;;;10.90;;
65071;SDS011;51663;52.310;17.016;2023-03-12T18:34:55;18.03;;;10.17;;
65071;SDS011;51663;52.310;17.016;2023-03-12T18:37:58;12.53;;;7.23;;
65071;SDS011;51663;52.310;17.016;2023-03-12T18:41:04;10.90;;;6.10;;
65071;SDS011;51663;52.310;17.016;2023-03-12T18:44:18;9.63;;;5.43;;
65071;SDS011;51663;52.310;17.016;2023-03-12T18:47:21;10.23;;;5.50;;
65071;SDS011;51663;52.310;17.016;2023-03-12T18:50:23;13.30;;;5.83;;
65071;SDS011;51663;52.310;17.016;2023-03-12T18:53:25;8.57;;;5.90;;
65071;SDS011;51663;52.310;17.016;2023-03-12T18:56:28;9.07;;;5.17;;
65071;SDS011;51663;52.310;17.016;2023-03-12T18:59:30;11.97;;;5.50;;
65071;SDS011;51663;52.310;17.016;2023-03-12T19:02:33;9.67;;;5.80;;
65071;SDS011;51663;52.310;17.016;2023-03-12T19:05:35;11.60;;;5.47;;
65071;SDS011;51663;52.310;17.016;2023-03-12T19:08:38;8.60;;;5.53;;
65071;SDS011;51663;52.310;17.016;2023-03-12T19:11:41;11.70;;;6.53;;
65071;SDS011;51663;52.310;17.016;2023-03-12T19:14:45;35.93;;;17.17;;
65071;SDS011;51663;52.310;17.016;2023-03-12T19:17:48;12.73;;;6.80;;
65071;SDS011;51663;52.310;17.016;2023-03-12T19:20:50;11.80;;;7.13;;
65071;SDS011;51663;52.310;17.016;2023-03-12T19:23:53;14.00;;;7.07;;
65071;SDS011;51663;52.310;17.016;2023-03-12T19:26:55;14.43;;;7.90;;
65071;SDS011;51663;52.310;17.016;2023-03-12T19:29:57;12.83;;;6.87;;
65071;SDS011;51663;52.310;17.016;2023-03-12T19:32:59;18.70;;;9.37;;
65071;SDS011;51663;52.310;17.016;2023-03-12T19:36:02;37.53;;;17.20;;
65071;SDS011;51663;52.310;17.016;2023-03-12T19:39:05;30.23;;;13.00;;
65071;SDS011;51663;52.310;17.016;2023-03-12T19:42:19;22.27;;;10.93;;
65071;SDS011;51663;52.310;17.016;2023-03-12T19:45:21;17.50;;;9.10;;
65071;SDS011;51663;52.310;17.016;2023-03-12T19:48:24;20.67;;;8.77;;
65071;SDS011;51663;52.310;17.016;2023-03-12T19:51:26;14.50;;;7.97;;
65071;SDS011;51663;52.310;17.016;2023-03-12T19:54:29;21.47;;;9.50;;
65071;SDS011;51663;52.310;17.016;2023-03-12T19:57:31;18.53;;;8.43;;
65071;SDS011;51663;52.310;17.016;2023-03-12T20:00:34;16.13;;;8.77;;
65071;SDS011;51663;52.310;17.016;2023-03-12T20:03:36;14.90;;;7.30;;
65071;SDS011;51663;52.310;17.016;2023-03-12T20:06:44;14.00;;;7.40;;
65071;SDS011;51663;52.310;17.016;2023-03-12T20:09:46;19.00;;;8.90;;
65071;SDS011;51663;52.310;17.016;2023-03-12T20:12:48;16.70;;;8.50;;
65071;SDS011;51663;52.310;17.016;2023-03-12T20:15:50;12.17;;;6.47;;
65071;SDS011;51663;52.310;17.016;2023-03-12T20:18:53;14.43;;;7.23;;
65071;SDS011;51663;52.310;17.016;2023-03-12T20:21:55;14.80;;;7.77;;
65071;SDS011;51663;52.310;17.016;2023-03-12T20:24:57;23.70;;;13.03;;
65071;SDS011;51663;52.310;17.016;2023-03-12T20:27:59;23.40;;;12.73;;